createdAt,value
2022-09-25T00:00:44.966Z,12.50
2022-09-25T00:03:17.516Z,12.13
2022-09-25T00:06:20.412Z,12.10
2022-09-25T00:09:12.368Z,12.18
2022-09-25T00:12:07.566Z,12.68
2022-09-25T00:32:10.380Z,12.07
2022-09-25T00:35:01.727Z,11.85
2022-09-25T00:37:35.222Z,12.38
2022-09-25T00:40:08.098Z,11.60
2022-09-25T00:42:39.237Z,12.33
2022-09-25T00:45:30.404Z,12.43
2022-09-25T00:48:07.840Z,11.90
2022-09-25T00:50:44.708Z,12.40
2022-09-25T00:53:44.846Z,11.75
2022-09-25T00:56:44.470Z,11.93
2022-09-25T01:01:57.904Z,11.82
2022-09-25T01:04:34.650Z,11.95
2022-09-25T01:07:05.989Z,11.43
2022-09-25T01:10:00.843Z,11.60
2022-09-25T01:13:05.030Z,12.07
2022-09-25T01:25:41.515Z,12.25
2022-09-25T01:29:03.228Z,11.93
2022-09-25T01:32:11.962Z,12.48
2022-09-25T01:35:01.001Z,11.73
2022-09-25T01:37:58.399Z,12.20
2022-09-25T01:40:40.561Z,12.32
2022-09-25T01:43:22.366Z,12.32
2022-09-25T01:45:58.934Z,11.77
2022-09-25T01:49:09.315Z,12.10
2022-09-25T01:51:52.065Z,13.10
2022-09-25T01:54:47.810Z,12.20
2022-09-25T01:58:09.817Z,11.98
2022-09-25T02:00:53.866Z,13.45
2022-09-25T02:03:36.176Z,13.70
2022-09-25T02:06:32.565Z,13.93
2022-09-25T03:01:50.179Z,11.80
2022-09-25T03:04:42.427Z,12.32
2022-09-25T03:07:15.383Z,12.32
2022-09-25T03:09:50.621Z,11.40
2022-09-25T03:12:43.223Z,11.93
2022-09-25T03:15:41.086Z,12.15
2022-09-25T03:18:33.473Z,12.13
2022-09-25T03:21:05.834Z,11.70
2022-09-25T03:23:37.056Z,12.45
2022-09-25T03:26:31.828Z,12.07
2022-09-25T04:36:28.429Z,12.40
2022-09-25T04:38:59.586Z,11.98
2022-09-25T04:41:53.523Z,11.77
2022-09-25T04:44:25.865Z,11.95
2022-09-25T04:47:19.543Z,11.80
2022-09-25T04:50:35.916Z,12.65
2022-09-25T04:53:07.390Z,12.43
2022-09-25T04:55:40.899Z,11.57
2022-09-25T04:59:01.001Z,11.43
2022-09-25T05:01:59.173Z,12.02
2022-09-25T05:04:32.242Z,12.55
2022-09-25T05:07:04.458Z,12.05
2022-09-25T05:12:48.858Z,12.98
2022-09-25T05:15:21.230Z,12.70
2022-09-25T05:18:25.749Z,12.45
2022-09-25T05:21:23.047Z,11.55
2022-09-25T05:24:20.200Z,12.23
2022-09-25T05:27:12.357Z,11.98
2022-09-25T05:29:44.373Z,12.90
2022-09-25T05:32:16.665Z,11.90
2022-09-25T05:54:43.590Z,12.23
2022-09-25T05:57:14.809Z,13.32
2022-09-25T06:00:14.074Z,12.15
2022-09-25T06:03:24.775Z,11.85
2022-09-25T06:06:16.351Z,12.00
2022-09-25T06:08:47.639Z,13.32
2022-09-25T06:11:18.845Z,12.60
2022-09-25T06:14:11.796Z,12.98
2022-09-25T06:17:07.364Z,12.00
2022-09-25T06:19:39.672Z,12.55
2022-09-25T06:22:12.354Z,12.45
2022-09-25T06:30:37.100Z,12.43
2022-09-25T06:33:14.012Z,11.85
2022-09-25T06:36:08.203Z,11.98
2022-09-25T06:38:59.152Z,12.52
2022-09-25T06:41:30.919Z,13.02
2022-09-25T06:44:24.530Z,11.38
2022-09-25T06:47:35.418Z,12.73
2022-09-25T06:50:08.740Z,12.15
2022-09-25T06:53:10.182Z,13.20
2022-09-25T08:08:54.177Z,12.65
2022-09-25T08:11:25.449Z,12.05
2022-09-25T08:13:56.907Z,11.85
2022-09-25T08:16:49.049Z,11.95
2022-09-25T08:19:20.286Z,12.73
2022-09-25T08:21:52.094Z,12.27
2022-09-25T08:24:44.382Z,11.90
2022-09-25T08:27:41.168Z,12.18
2022-09-25T08:30:32.752Z,12.98
2022-09-25T08:33:04.030Z,11.93
2022-09-25T08:35:35.143Z,12.48
2022-09-25T08:38:06.674Z,12.68
2022-09-25T08:40:48.002Z,12.30
2022-09-25T09:45:31.048Z,12.73
2022-09-25T10:15:56.947Z,12.30
2022-09-25T10:18:54.845Z,12.68
2022-09-25T10:22:03.798Z,12.00
2022-09-25T10:24:55.035Z,13.27
2022-09-25T10:27:50.852Z,12.73
2022-09-25T10:30:54.277Z,12.48
2022-09-25T10:33:28.835Z,12.50
2022-09-25T10:51:39.998Z,12.43
2022-09-25T10:54:18.148Z,12.65
2022-09-25T10:57:38.274Z,12.75
2022-09-25T11:00:29.785Z,12.65
2022-09-25T11:03:03.842Z,12.77
2022-09-25T11:05:38.213Z,13.23
2022-09-25T11:08:10.873Z,13.23
2022-09-25T11:11:04.285Z,12.82
2022-09-25T11:14:00.382Z,12.80
2022-09-25T11:29:06.566Z,11.77
2022-09-25T11:32:31.073Z,12.07
2022-09-25T11:35:22.847Z,12.38
2022-09-25T11:37:59.008Z,12.75
2022-09-25T11:41:13.901Z,12.35
2022-09-25T11:44:17.410Z,11.90
2022-09-25T11:47:41.519Z,12.50
2022-09-25T11:50:20.446Z,11.65
2022-09-25T11:53:45.783Z,11.57
2022-09-25T11:56:32.824Z,12.73
2022-09-25T12:16:00.740Z,11.87
2022-09-25T12:19:03.332Z,12.48
2022-09-25T12:21:36.536Z,11.82
2022-09-25T12:24:16.650Z,11.90
2022-09-25T12:27:00.486Z,11.98
2022-09-25T12:30:13.143Z,12.23
2022-09-25T12:33:05.611Z,12.75
2022-09-25T12:35:46.993Z,12.50
2022-09-25T12:38:28.648Z,12.35
2022-09-25T12:41:23.146Z,13.00
2022-09-25T12:44:04.499Z,12.77
2022-09-25T12:47:26.112Z,12.73
2022-09-25T13:06:02.703Z,14.48
2022-09-25T13:08:54.277Z,14.05
2022-09-25T13:12:11.231Z,14.38
2022-09-25T13:14:55.647Z,14.65
2022-09-25T13:17:26.638Z,15.60
2022-09-25T13:20:32.765Z,16.73
2022-09-25T13:23:38.703Z,13.88
2022-09-25T13:26:34.078Z,15.30
2022-09-25T14:56:53.501Z,14.85
2022-09-25T14:59:51.369Z,14.93
2022-09-25T15:02:46.489Z,12.85
2022-09-25T15:05:49.715Z,14.40
2022-09-25T15:08:42.547Z,13.60
2022-09-25T15:11:46.147Z,13.85
2022-09-25T15:15:02.015Z,14.10
2022-09-25T15:20:24.609Z,14.52
2022-09-25T16:21:36.847Z,14.13
2022-09-25T16:24:20.508Z,13.55
2022-09-25T16:27:41.582Z,13.68
2022-09-25T16:30:29.713Z,12.82
2022-09-25T16:33:41.964Z,13.90
2022-09-25T16:36:44.834Z,13.45
2022-09-25T16:39:41.792Z,13.05
2022-09-25T16:55:19.364Z,13.95
2022-09-25T16:58:39.268Z,13.65
2022-09-25T17:01:12.275Z,13.57
2022-09-25T17:03:52.401Z,13.70
2022-09-25T17:06:49.873Z,12.93
2022-09-25T17:09:21.818Z,13.23
2022-09-25T17:11:54.817Z,12.68
2022-09-25T17:14:48.571Z,13.73
2022-09-25T17:17:39.512Z,12.80
2022-09-25T17:20:14.408Z,13.80
2022-09-25T17:23:06.468Z,13.80
2022-09-25T17:34:36.064Z,11.75
2022-09-25T17:37:35.769Z,13.10
2022-09-25T17:40:07.035Z,12.93
2022-09-25T17:43:17.031Z,12.85
2022-09-25T17:46:23.244Z,12.98
2022-09-25T17:49:15.460Z,12.43
2022-09-25T17:51:47.936Z,11.95
2022-09-25T17:54:19.953Z,12.60
2022-09-25T17:56:52.325Z,12.65
2022-09-25T18:14:15.863Z,12.00
2022-09-25T18:17:09.344Z,12.25
2022-09-25T18:20:25.479Z,13.05
2022-09-25T18:23:16.487Z,11.93
2022-09-25T18:25:47.604Z,12.02
2022-09-25T18:28:19.824Z,11.80
2022-09-25T18:30:50.792Z,11.65
2022-09-25T18:33:47.438Z,11.43
2022-09-25T18:36:19.147Z,12.57
2022-09-25T18:53:20.351Z,12.18
2022-09-25T18:56:14.212Z,11.68
2022-09-25T18:58:45.228Z,11.90
2022-09-25T19:01:40.038Z,11.32
2022-09-25T19:04:34.173Z,11.55
2022-09-25T19:07:40.225Z,11.95
2022-09-25T19:21:49.266Z,12.15
2022-09-25T19:24:20.273Z,11.10
2022-09-25T19:27:14.823Z,12.15
2022-09-25T19:29:47.723Z,11.02
2022-09-25T19:32:45.086Z,11.23
2022-09-25T19:35:39.973Z,11.50
2022-09-25T19:38:39.502Z,11.15
2022-09-25T19:58:23.082Z,10.93
2022-09-25T20:01:17.374Z,11.40
2022-09-25T20:03:48.406Z,12.00
2022-09-25T20:06:42.381Z,12.27
2022-09-25T20:09:14.095Z,11.98
2022-09-25T20:12:08.046Z,11.25
2022-09-25T20:15:00.547Z,11.80
2022-09-25T20:17:32.585Z,12.13
2022-09-25T20:20:05.487Z,11.02
2022-09-25T20:34:50.608Z,11.38
2022-09-25T20:37:41.861Z,10.80
2022-09-25T20:40:13.437Z,11.27
2022-09-25T20:42:44.838Z,11.40
2022-09-25T20:45:16.737Z,11.75
2022-09-25T20:48:07.628Z,11.60
2022-09-25T20:50:58.495Z,11.23
2022-09-25T20:53:29.442Z,11.70
2022-09-25T20:56:47.791Z,11.00
2022-09-25T20:59:20.160Z,11.55
2022-09-25T21:02:14.766Z,11.23
2022-09-25T21:04:48.130Z,10.95
2022-09-25T21:07:19.962Z,10.90
2022-09-25T21:26:48.799Z,11.05
2022-09-25T21:29:20.309Z,10.70
2022-09-25T21:31:51.335Z,11.10
2022-09-25T21:34:22.363Z,11.13
2022-09-25T21:37:31.398Z,11.75
2022-09-25T21:40:22.613Z,10.82
2022-09-25T21:42:54.635Z,11.23
2022-09-25T21:45:25.459Z,11.80
2022-09-25T21:48:16.608Z,10.82
2022-09-25T21:51:10.837Z,10.77
2022-09-25T21:53:43.177Z,11.85
2022-09-25T22:08:24.443Z,10.98
2022-09-25T22:10:59.981Z,11.98
2022-09-25T22:13:52.535Z,11.50
2022-09-25T22:16:30.819Z,11.23
2022-09-25T22:19:27.810Z,11.38
2022-09-25T22:22:00.223Z,11.70
2022-09-25T22:24:31.310Z,11.50
2022-09-25T22:27:22.393Z,11.23
2022-09-25T22:29:53.540Z,10.90
2022-09-25T22:32:57.755Z,10.50
2022-09-25T22:35:29.906Z,12.05
2022-09-25T22:38:01.100Z,11.18
2022-09-25T23:06:09.541Z,11.60
2022-09-25T23:08:40.546Z,11.20
2022-09-25T23:11:34.533Z,10.48
2022-09-25T23:14:18.464Z,11.30
2022-09-25T23:17:09.600Z,11.15
2022-09-25T23:20:01.196Z,11.70
2022-09-25T23:22:32.444Z,11.02
2022-09-25T23:25:24.830Z,11.25
2022-09-25T23:27:55.813Z,11.45
2022-09-25T23:30:47.900Z,10.93
2022-09-25T23:33:19.401Z,11.35
